Time;durP1;ratioP1;P1;durP2;ratioP2;P2;SDS_P1;SDS_P2;PMS_P1;PMS_P2;Temp;Humidity;BMP_temperature;BMP_pressure;BME280_temperature;BME280_humidity;BME280_pressure;Samples;Min_cycle;Max_cycle;Signal;HPM_P1;HPM_P2
2022/09/29 00:00:56;;;;;;;0.10;0.10;;;7.20;99.90;;;;;;4970662;28;20676;-74
2022/09/29 00:03:24;;;;;;;0.10;0.10;;;7.30;99.90;;;;;;4973328;28;20205;-74
2022/09/29 00:05:54;;;;;;;0.10;0.10;;;7.20;99.90;;;;;;4972125;28;20585;-74
2022/09/29 00:08:24;;;;;;;0.10;0.10;;;7.30;99.90;;;;;;4989445;28;20224;-74
2022/09/29 00:10:52;;;;;;;0.10;0.10;;;7.20;99.90;;;;;;4993823;28;20204;-73
2022/09/29 00:13:22;;;;;;;0.00;0.00;;;7.20;99.90;;;;;;4985970;28;20251;-74
2022/09/29 00:15:57;;;;;;;0.10;0.10;;;7.20;99.90;;;;;;4977028;28;20208;-74
2022/09/29 00:18:26;;;;;;;0.10;0.10;;;7.30;99.90;;;;;;4978832;28;20233;-73
2022/09/29 00:20:58;;;;;;;0.10;0.10;;;7.30;99.90;;;;;;4974409;28;20272;-74
2022/09/29 00:23:27;;;;;;;0.10;0.10;;;7.40;99.90;;;;;;4975051;28;20197;-74
2022/09/29 00:26:06;;;;;;;0.10;0.10;;;7.50;99.90;;;;;;4974496;28;20201;-74
2022/09/29 00:28:37;;;;;;;0.10;0.10;;;7.50;99.90;;;;;;4964291;28;20229;-74
2022/09/29 00:31:06;;;;;;;0.10;0.10;;;7.40;99.90;;;;;;4976899;28;20742;-74
2022/09/29 00:33:36;;;;;;;0.10;0.10;;;7.40;99.90;;;;;;4992547;28;20207;-74
2022/09/29 00:36:08;;;;;;;0.10;0.10;;;7.40;99.90;;;;;;4972714;28;20209;-75
2022/09/29 00:38:36;;;;;;;0.10;0.10;;;7.40;99.90;;;;;;4969864;28;20582;-74
2022/09/29 00:41:05;;;;;;;0.10;0.10;;;7.40;99.90;;;;;;4976275;28;20385;-74
2022/09/29 00:43:53;;;;;;;0.10;0.10;;;7.40;99.90;;;;;;4978693;28;20672;-74
2022/09/29 00:46:30;;;;;;;0.10;0.10;;;7.40;99.90;;;;;;4988632;28;20216;-74
2022/09/29 00:49:02;;;;;;;0.10;0.10;;;7.40;99.90;;;;;;4989872;28;20224;-74
2022/09/29 00:51:33;;;;;;;0.10;0.10;;;7.50;99.90;;;;;;4988389;28;20193;-74
2022/09/29 00:54:02;;;;;;;0.10;0.10;;;7.50;99.90;;;;;;4980946;28;20212;-74
2022/09/29 00:56:30;;;;;;;0.10;0.10;;;7.50;99.90;;;;;;4978873;28;20215;-74
2022/09/29 00:59:02;;;;;;;0.10;0.10;;;7.60;99.90;;;;;;4979110;28;20717;-75
2022/09/29 01:01:31;;;;;;;0.10;0.10;;;7.50;99.90;;;;;;4980980;28;20209;-74
2022/09/29 01:04:03;;;;;;;0.10;0.10;;;7.50;99.90;;;;;;4979664;28;20586;-74
2022/09/29 01:06:35;;;;;;;0.10;0.10;;;7.50;99.90;;;;;;4980532;28;20217;-75
2022/09/29 01:09:06;;;;;;;0.10;0.10;;;7.50;99.90;;;;;;4985122;28;20224;-74
2022/09/29 01:11:34;;;;;;;0.10;0.10;;;7.50;99.90;;;;;;4993517;28;20193;-74
2022/09/29 01:14:07;;;;;;;0.10;0.10;;;7.50;99.90;;;;;;4987113;28;20207;-75
2022/09/29 01:16:40;;;;;;;0.10;0.10;;;7.50;99.90;;;;;;4986770;28;20212;-74
2022/09/29 01:19:15;;;;;;;0.10;0.10;;;7.40;99.90;;;;;;4979309;28;20252;-74
2022/09/29 01:22:03;;;;;;;0.10;0.10;;;7.50;99.90;;;;;;4990205;28;20660;-74
2022/09/29 01:24:58;;;;;;;0.10;0.10;;;7.50;99.90;;;;;;4974346;28;20201;-73
2022/09/29 01:28:01;;;;;;;0.10;0.10;;;7.50;99.90;;;;;;4972224;28;20213;-74
2022/09/29 01:30:45;;;;;;;0.10;0.10;;;7.50;99.90;;;;;;4963602;28;20211;-74
2022/09/29 01:33:28;;;;;;;0.10;0.10;;;7.60;99.90;;;;;;4989139;28;20202;-74
2022/09/29 01:36:06;;;;;;;0.10;0.10;;;7.60;99.90;;;;;;4987981;28;20200;-75
2022/09/29 01:38:51;;;;;;;0.10;0.10;;;7.70;99.90;;;;;;4967145;28;20225;-74
2022/09/29 01:41:28;;;;;;;0.10;0.10;;;7.70;99.90;;;;;;4970470;28;20297;-74
2022/09/29 01:44:01;;;;;;;0.10;0.10;;;7.80;99.90;;;;;;4953857;29;20256;-74
2022/09/29 01:46:34;;;;;;;0.10;0.10;;;7.70;99.90;;;;;;4971415;28;20593;-74
2022/09/29 01:49:04;;;;;;;0.00;0.00;;;7.80;99.90;;;;;;4968890;28;20264;-74
2022/09/29 01:51:39;;;;;;;0.10;0.10;;;7.70;99.90;;;;;;4976177;28;20204;-74
2022/09/29 01:54:12;;;;;;;0.10;0.10;;;7.70;99.90;;;;;;4978055;28;20208;-74
2022/09/29 01:56:44;;;;;;;0.10;0.10;;;7.70;99.90;;;;;;4979208;28;20204;-74
2022/09/29 01:59:18;;;;;;;0.00;0.00;;;7.70;99.90;;;;;;4973142;28;20201;-74
2022/09/29 02:01:50;;;;;;;0.10;0.10;;;7.70;99.90;;;;;;4974517;28;20616;-74
2022/09/29 02:04:23;;;;;;;0.10;0.10;;;7.60;99.90;;;;;;4974477;28;20243;-74
2022/09/29 02:06:57;;;;;;;0.10;0.10;;;7.70;99.90;;;;;;4987276;28;20217;-74
2022/09/29 02:09:29;;;;;;;0.10;0.10;;;7.80;99.90;;;;;;4987594;28;20219;-75
2022/09/29 02:12:01;;;;;;;0.10;0.10;;;7.80;99.90;;;;;;4984636;28;20247;-75
2022/09/29 02:14:32;;;;;;;0.10;0.10;;;7.80;99.90;;;;;;4961919;28;20200;-76
2022/09/29 02:17:05;;;;;;;0.10;0.10;;;7.80;99.90;;;;;;5016462;23;20235;-74
2022/09/29 02:19:36;;;;;;;0.10;0.10;;;7.80;99.90;;;;;;4993063;28;20213;-77
2022/09/29 02:22:04;;;;;;;0.10;0.10;;;7.80;99.90;;;;;;4993863;28;20210;-77
2022/09/29 02:24:32;;;;;;;0.10;0.10;;;7.80;99.90;;;;;;4985280;28;20205;-77
2022/09/29 02:27:00;;;;;;;0.10;0.10;;;7.80;99.90;;;;;;4978788;28;20219;-77
2022/09/29 02:29:28;;;;;;;0.10;0.10;;;7.80;99.90;;;;;;4976443;28;20231;-77
2022/09/29 02:32:00;;;;;;;0.00;0.00;;;7.80;99.90;;;;;;4988018;28;20736;-77
2022/09/29 02:34:31;;;;;;;0.10;0.10;;;7.80;99.90;;;;;;4964567;28;20220;-77
2022/09/29 02:37:08;;;;;;;0.10;0.10;;;7.80;99.90;;;;;;4977883;28;20211;-76
2022/09/29 02:39:43;;;;;;;0.10;0.10;;;7.90;99.90;;;;;;4981579;28;20191;-76
2022/09/29 02:42:21;;;;;;;0.00;0.00;;;7.90;99.90;;;;;;4977413;28;20250;-76
2022/09/29 02:45:07;;;;;;;0.10;0.10;;;7.90;99.90;;;;;;4957086;28;20213;-76
2022/09/29 02:47:51;;;;;;;0.10;0.10;;;7.90;99.90;;;;;;4990975;28;20224;-76
2022/09/29 02:50:36;;;;;;;0.10;0.10;;;7.90;99.90;;;;;;4976720;28;20340;-76
2022/09/29 02:53:13;;;;;;;0.10;0.10;;;7.90;99.90;;;;;;4965041;28;20672;-76
2022/09/29 02:55:47;;;;;;;0.10;0.10;;;8.00;99.90;;;;;;4985912;28;20228;-76
2022/09/29 02:58:20;;;;;;;0.10;0.10;;;7.90;99.90;;;;;;4976610;28;20224;-78
2022/09/29 03:00:48;;;;;;;0.10;0.10;;;7.90;99.90;;;;;;4992186;28;20224;-77
2022/09/29 03:03:16;;;;;;;0.10;0.10;;;7.90;99.90;;;;;;4978534;28;20572;-76
2022/09/29 03:05:46;;;;;;;0.10;0.10;;;8.00;99.90;;;;;;4991715;28;20196;-76
2022/09/29 03:08:14;;;;;;;0.10;0.10;;;8.00;99.90;;;;;;4975055;28;20683;-76
2022/09/29 03:10:42;;;;;;;0.10;0.10;;;8.00;99.90;;;;;;4979155;28;20255;-77
2022/09/29 03:13:10;;;;;;;0.10;0.10;;;8.00;99.90;;;;;;4943977;28;20237;-77
2022/09/29 03:15:38;;;;;;;0.10;0.10;;;8.00;99.90;;;;;;4984339;28;20219;-77
2022/09/29 03:18:06;;;;;;;0.10;0.10;;;8.00;99.90;;;;;;4977798;28;20256;-77
2022/09/29 03:20:37;;;;;;;0.10;0.10;;;8.00;99.90;;;;;;4989354;28;20201;-77
2022/09/29 03:23:06;;;;;;;0.10;0.10;;;8.00;99.90;;;;;;4995355;28;20209;-77
2022/09/29 03:25:34;;;;;;;0.10;0.10;;;7.90;99.90;;;;;;4963620;28;20541;-76
2022/09/29 03:28:02;;;;;;;0.00;0.00;;;8.00;99.90;;;;;;4969338;28;20279;-78
2022/09/29 03:30:30;;;;;;;0.10;0.10;;;8.00;99.90;;;;;;4987232;28;20219;-77
2022/09/29 03:32:58;;;;;;;0.10;0.10;;;8.00;99.90;;;;;;4968542;28;20231;-77
2022/09/29 03:35:26;;;;;;;0.10;0.10;;;7.90;99.90;;;;;;4956645;28;20255;-77
2022/09/29 03:37:57;;;;;;;0.10;0.10;;;8.00;99.90;;;;;;4985503;28;20209;-78
2022/09/29 03:40:27;;;;;;;0.10;0.10;;;7.90;99.90;;;;;;4989013;28;20292;-78
2022/09/29 03:42:55;;;;;;;0.00;0.00;;;7.90;99.90;;;;;;4972322;28;20208;-77
2022/09/29 03:45:23;;;;;;;0.10;0.10;;;7.90;99.90;;;;;;4968063;28;20264;-77
2022/09/29 03:47:51;;;;;;;0.10;0.10;;;7.80;99.90;;;;;;4986520;28;20529;-77
2022/09/29 03:50:19;;;;;;;0.10;0.10;;;7.90;99.90;;;;;;4983247;28;20279;-77
2022/09/29 03:52:47;;;;;;;0.05;0.05;;;7.80;99.90;;;;;;4996634;28;20687;-77
2022/09/29 03:55:15;;;;;;;0.10;0.10;;;7.80;99.90;;;;;;4987567;28;20613;-77
2022/09/29 03:57:46;;;;;;;0.10;0.10;;;7.70;99.90;;;;;;4977688;28;20235;-77
2022/09/29 04:00:15;;;;;;;0.10;0.10;;;7.80;99.90;;;;;;4980546;28;20197;-77
2022/09/29 04:02:43;;;;;;;0.10;0.10;;;7.70;99.90;;;;;;4969506;28;20580;-77
2022/09/29 04:05:11;;;;;;;0.08;0.08;;;7.80;99.90;;;;;;4985973;28;20614;-77
2022/09/29 04:07:39;;;;;;;0.10;0.10;;;7.80;99.90;;;;;;4995722;28;20263;-77
2022/09/29 04:10:07;;;;;;;0.10;0.10;;;7.90;99.90;;;;;;4987332;28;20224;-77
2022/09/29 04:12:35;;;;;;;0.10;0.10;;;7.80;99.90;;;;;;4974028;28;20194;-77
2022/09/29 04:15:05;;;;;;;0.10;0.10;;;7.80;99.90;;;;;;4962711;28;20833;-77
2022/09/29 04:17:33;;;;;;;0.10;0.10;;;7.80;99.90;;;;;;4977196;28;20221;-77
2022/09/29 04:20:02;;;;;;;0.10;0.10;;;7.80;99.90;;;;;;4979025;28;20254;-77
2022/09/29 04:22:30;;;;;;;0.10;0.10;;;7.80;99.90;;;;;;4948168;28;20206;-77
2022/09/29 04:24:58;;;;;;;0.10;0.10;;;7.80;99.90;;;;;;4958406;28;20194;-77
2022/09/29 04:27:26;;;;;;;0.10;0.10;;;7.80;99.90;;;;;;4969578;28;20229;-77
2022/09/29 04:29:54;;;;;;;0.10;0.10;;;7.70;99.90;;;;;;4971277;28;20217;-77
2022/09/29 04:32:24;;;;;;;0.10;0.10;;;7.70;99.90;;;;;;5000946;28;20204;-78
2022/09/29 04:34:52;;;;;;;0.10;0.10;;;7.70;99.90;;;;;;4995903;28;20201;-77
2022/09/29 04:37:19;;;;;;;0.10;0.10;;;7.80;99.90;;;;;;4984069;28;20271;-77
2022/09/29 04:39:47;;;;;;;0.10;0.10;;;7.70;99.90;;;;;;4964688;28;20198;-77
2022/09/29 04:42:15;;;;;;;0.10;0.10;;;7.60;99.90;;;;;;4972132;28;20501;-78
2022/09/29 04:44:43;;;;;;;0.10;0.10;;;7.60;99.90;;;;;;4976175;28;20196;-77
2022/09/29 04:47:11;;;;;;;0.00;0.00;;;7.60;99.90;;;;;;4980392;28;20186;-77
2022/09/29 04:49:41;;;;;;;0.10;0.10;;;7.70;99.90;;;;;;4969394;28;20217;-77
2022/09/29 04:52:10;;;;;;;0.10;0.10;;;7.80;99.90;;;;;;4995629;28;20267;-77
2022/09/29 04:54:39;;;;;;;0.10;0.10;;;7.80;99.90;;;;;;4996330;28;20198;-78
2022/09/29 04:57:08;;;;;;;0.10;0.10;;;7.90;99.90;;;;;;4980619;28;20219;-78
2022/09/29 04:59:36;;;;;;;0.03;0.03;;;7.80;99.90;;;;;;4984844;28;20185;-78
2022/09/29 05:02:04;;;;;;;0.10;0.10;;;7.80;99.90;;;;;;4981763;28;20205;-78
2022/09/29 05:04:32;;;;;;;0.10;0.10;;;7.80;99.90;;;;;;4982877;28;20680;-78
2022/09/29 05:07:02;;;;;;;0.10;0.10;;;7.90;99.90;;;;;;4978077;28;20261;-78
2022/09/29 05:09:30;;;;;;;0.00;0.00;;;8.00;99.90;;;;;;4967069;29;20235;-78
2022/09/29 05:12:01;;;;;;;0.10;0.10;;;8.00;99.90;;;;;;4977697;28;20280;-78
2022/09/29 05:14:29;;;;;;;0.10;0.10;;;7.90;99.90;;;;;;4964051;28;20211;-78
2022/09/29 05:16:59;;;;;;;0.00;0.00;;;7.90;99.90;;;;;;4950409;28;20268;-78
2022/09/29 05:19:28;;;;;;;0.10;0.10;;;7.80;99.90;;;;;;4956818;28;20383;-78
2022/09/29 05:21:57;;;;;;;0.10;0.10;;;7.80;99.90;;;;;;4959623;28;20243;-78
2022/09/29 05:24:36;;;;;;;0.10;0.10;;;7.90;99.90;;;;;;4965086;28;20268;-78
2022/09/29 05:27:10;;;;;;;0.10;0.10;;;7.90;99.90;;;;;;4966173;28;20232;-79
2022/09/29 05:29:47;;;;;;;0.10;0.10;;;7.90;99.90;;;;;;4974578;28;20220;-76
2022/09/29 05:32:15;;;;;;;0.10;0.10;;;7.90;99.90;;;;;;4972473;28;20624;-76
2022/09/29 05:34:43;;;;;;;0.10;0.10;;;7.90;99.90;;;;;;4973784;28;20197;-77
2022/09/29 05:37:11;;;;;;;0.10;0.10;;;7.90;99.90;;;;;;4974156;28;20201;-77
2022/09/29 05:39:41;;;;;;;0.10;0.10;;;7.90;99.90;;;;;;4973620;28;20205;-76
2022/09/29 05:42:11;;;;;;;0.10;0.10;;;7.80;99.90;;;;;;4973865;28;20610;-76
2022/09/29 05:44:39;;;;;;;0.10;0.10;;;7.80;99.90;;;;;;4956280;28;20656;-77
2022/09/29 05:47:07;;;;;;;0.10;0.10;;;7.80;99.90;;;;;;4975334;28;20606;-76
2022/09/29 05:49:35;;;;;;;0.10;0.10;;;7.80;99.90;;;;;;4974947;28;20188;-76
2022/09/29 05:52:03;;;;;;;0.00;0.00;;;7.90;99.90;;;;;;4973154;28;20619;-76
2022/09/29 05:54:31;;;;;;;0.10;0.10;;;7.90;99.90;;;;;;4973541;28;20209;-76
2022/09/29 05:57:00;;;;;;;0.10;0.10;;;7.90;99.90;;;;;;4971580;28;20205;-76
2022/09/29 05:59:28;;;;;;;0.10;0.10;;;7.90;99.90;;;;;;4971864;28;20197;-76
2022/09/29 06:01:56;;;;;;;0.10;0.10;;;8.00;99.90;;;;;;4973644;28;20257;-78
2022/09/29 06:04:24;;;;;;;0.10;0.10;;;7.90;99.90;;;;;;4973856;28;20204;-77
2022/09/29 06:06:52;;;;;;;0.10;0.10;;;8.00;99.90;;;;;;4974148;28;20220;-76
2022/09/29 06:09:20;;;;;;;0.00;0.00;;;7.90;99.90;;;;;;4973486;28;20259;-76
2022/09/29 06:11:48;;;;;;;0.10;0.10;;;7.90;99.90;;;;;;4972891;28;20221;-76
2022/09/29 06:14:17;;;;;;;0.10;0.10;;;7.90;99.90;;;;;;4973101;28;20625;-76
2022/09/29 06:16:45;;;;;;;0.10;0.10;;;7.90;99.90;;;;;;4973101;28;20244;-76
2022/09/29 06:19:13;;;;;;;0.10;0.10;;;8.00;99.90;;;;;;4972829;28;20300;-76
2022/09/29 06:21:41;;;;;;;0.10;0.10;;;8.00;99.90;;;;;;4973148;28;20281;-77
2022/09/29 06:24:09;;;;;;;0.10;0.10;;;8.10;99.90;;;;;;4955803;28;20209;-76
2022/09/29 06:26:37;;;;;;;0.00;0.00;;;8.10;99.90;;;;;;4973306;28;20208;-77
2022/09/29 06:29:05;;;;;;;0.10;0.10;;;8.10;99.90;;;;;;4972434;28;20739;-76
2022/09/29 06:31:34;;;;;;;0.10;0.10;;;8.10;99.90;;;;;;4972866;28;20220;-76
2022/09/29 06:34:05;;;;;;;0.10;0.10;;;8.20;99.90;;;;;;4972455;28;20672;-76
2022/09/29 06:39:22;;;;;;;0.10;0.10;;;8.20;99.90;;;;;;4972927;28;20727;-76
2022/09/29 06:41:55;;;;;;;0.10;0.10;;;8.30;99.90;;;;;;4972935;28;20727;-76
2022/09/29 06:44:25;;;;;;;0.10;0.10;;;8.30;99.90;;;;;;4955319;28;20212;-77
2022/09/29 06:46:55;;;;;;;0.10;0.10;;;8.30;99.90;;;;;;4972532;28;20545;-77
2022/09/29 06:49:23;;;;;;;0.10;0.10;;;8.30;99.90;;;;;;4972784;28;20193;-76
2022/09/29 06:51:51;;;;;;;0.10;0.10;;;8.40;99.90;;;;;;4971889;28;20790;-76
2022/09/29 06:54:23;;;;;;;0.10;0.10;;;8.50;99.90;;;;;;4972787;28;20212;-77
2022/09/29 06:56:54;;;;;;;0.10;0.10;;;8.50;99.90;;;;;;4976077;28;20630;-77
2022/09/29 06:59:21;;;;;;;0.10;0.10;;;8.50;99.90;;;;;;4976541;28;20204;-77
2022/09/29 07:01:50;;;;;;;0.05;0.05;;;8.50;99.90;;;;;;4976725;28;20679;-77
2022/09/29 07:04:21;;;;;;;0.10;0.10;;;8.50;99.90;;;;;;4976454;28;20197;-76
2022/09/29 07:06:49;;;;;;;0.10;0.10;;;8.50;99.90;;;;;;4975648;28;20548;-76
2022/09/29 07:09:18;;;;;;;0.10;0.10;;;8.50;99.90;;;;;;4976675;28;20216;-76
2022/09/29 07:11:48;;;;;;;0.10;0.10;;;8.60;99.90;;;;;;4960019;28;20235;-77
2022/09/29 07:14:17;;;;;;;0.10;0.10;;;8.60;99.90;;;;;;4976534;28;20201;-77
2022/09/29 07:16:47;;;;;;;0.03;0.03;;;8.70;99.90;;;;;;4995603;28;20203;-77
2022/09/29 07:19:16;;;;;;;0.10;0.10;;;8.80;99.90;;;;;;4968290;28;20252;-76
2022/09/29 07:21:46;;;;;;;0.10;0.10;;;8.70;99.90;;;;;;4974583;28;20544;-76
2022/09/29 07:24:15;;;;;;;0.00;0.00;;;8.80;99.90;;;;;;4975188;28;20205;-77
2022/09/29 07:26:43;;;;;;;0.10;0.10;;;8.80;99.90;;;;;;4977520;28;20197;-77
2022/09/29 07:29:11;;;;;;;0.10;0.10;;;8.80;99.90;;;;;;4976209;28;20233;-77
2022/09/29 07:31:43;;;;;;;0.10;0.10;;;8.80;99.90;;;;;;4976034;28;20217;-76
2022/09/29 07:34:19;;;;;;;0.10;0.10;;;8.80;99.90;;;;;;4975697;28;20566;-76
2022/09/29 07:36:48;;;;;;;0.10;0.10;;;8.80;99.90;;;;;;4974529;28;20255;-77
2022/09/29 07:39:16;;;;;;;0.10;0.10;;;8.90;99.90;;;;;;4975893;28;20228;-76
2022/09/29 07:41:44;;;;;;;0.10;0.10;;;8.90;99.90;;;;;;4976782;28;20189;-76
2022/09/29 07:44:12;;;;;;;0.10;0.10;;;8.90;99.90;;;;;;4976421;28;20218;-76
2022/09/29 07:46:40;;;;;;;0.03;0.03;;;9.00;99.90;;;;;;4975990;28;20201;-77
2022/09/29 07:49:08;;;;;;;0.10;0.10;;;9.00;99.90;;;;;;4971252;28;20237;-76
2022/09/29 07:51:36;;;;;;;0.10;0.10;;;9.00;99.90;;;;;;4948303;29;20237;-77
2022/09/29 07:54:17;;;;;;;0.10;0.10;;;9.00;99.90;;;;;;4945087;28;20284;-77
2022/09/29 07:56:46;;;;;;;0.10;0.10;;;9.10;99.90;;;;;;4975191;28;20208;-77
2022/09/29 07:59:14;;;;;;;0.10;0.10;;;9.20;99.90;;;;;;4975596;28;20224;-77
2022/09/29 08:01:42;;;;;;;0.10;0.10;;;9.20;99.90;;;;;;4958009;28;20779;-76
2022/09/29 08:04:10;;;;;;;0.10;0.10;;;9.30;99.90;;;;;;4939726;29;20228;-76
2022/09/29 08:06:39;;;;;;;0.10;0.10;;;9.40;99.90;;;;;;4955880;28;20218;-76
2022/09/29 08:09:08;;;;;;;0.10;0.10;;;9.40;99.90;;;;;;4955907;28;20237;-76
2022/09/29 08:11:38;;;;;;;0.10;0.10;;;9.40;99.90;;;;;;4955891;29;20214;-76
2022/09/29 08:14:07;;;;;;;0.10;0.10;;;9.50;99.90;;;;;;4955771;29;20197;-77
2022/09/29 08:16:35;;;;;;;0.10;0.10;;;9.60;99.90;;;;;;4955698;29;20224;-76
2022/09/29 08:19:05;;;;;;;0.10;0.10;;;9.80;99.90;;;;;;4955299;28;20225;-77
2022/09/29 08:21:35;;;;;;;0.10;0.10;;;9.80;99.90;;;;;;4938343;29;20198;-77
2022/09/29 08:24:04;;;;;;;0.10;0.10;;;10.00;99.90;;;;;;4955193;29;20225;-76
2022/09/29 08:26:35;;;;;;;0.10;0.10;;;10.00;99.90;;;;;;4994051;23;20786;-74
2022/09/29 08:29:11;;;;;;;0.10;0.10;;;10.00;99.90;;;;;;4974463;28;20255;-75
2022/09/29 08:31:44;;;;;;;0.10;0.10;;;10.10;99.90;;;;;;4974799;28;20209;-74
2022/09/29 08:34:13;;;;;;;0.10;0.10;;;10.10;99.90;;;;;;4971027;28;20656;-75
2022/09/29 08:36:42;;;;;;;0.10;0.10;;;10.30;99.90;;;;;;4969772;28;20220;-74
2022/09/29 08:39:10;;;;;;;0.10;0.10;;;10.40;99.90;;;;;;4986308;28;20213;-74
2022/09/29 08:41:53;;;;;;;0.10;0.10;;;10.50;99.90;;;;;;4975014;28;20194;-74
2022/09/29 08:44:34;;;;;;;0.10;0.10;;;10.60;99.90;;;;;;4959624;28;20206;-75
2022/09/29 08:47:16;;;;;;;0.10;0.10;;;10.70;99.90;;;;;;4957044;29;20201;-74
2022/09/29 08:49:49;;;;;;;0.10;0.10;;;10.70;99.90;;;;;;4959723;29;20225;-74
2022/09/29 08:52:21;;;;;;;0.10;0.10;;;10.80;99.90;;;;;;4962130;29;20221;-74
2022/09/29 08:54:55;;;;;;;0.10;0.10;;;10.70;99.90;;;;;;4962522;28;20198;-73
2022/09/29 08:57:25;;;;;;;0.10;0.10;;;10.70;99.90;;;;;;4962968;29;20212;-74
2022/09/29 08:59:55;;;;;;;0.10;0.10;;;10.90;99.90;;;;;;4962879;29;20331;-74
2022/09/29 09:02:49;;;;;;;0.10;0.10;;;11.00;99.90;;;;;;4962019;29;20567;-74
2022/09/29 09:05:40;;;;;;;0.10;0.10;;;11.10;99.90;;;;;;4963799;28;20225;-74
2022/09/29 09:08:17;;;;;;;0.10;0.10;;;11.20;99.90;;;;;;4989933;28;20204;-74
2022/09/29 09:10:46;;;;;;;0.10;0.10;;;11.30;99.90;;;;;;4993414;28;20250;-75
2022/09/29 09:13:30;;;;;;;0.00;0.00;;;11.40;99.90;;;;;;4987415;28;20220;-75
2022/09/29 09:16:14;;;;;;;0.10;0.10;;;11.50;99.90;;;;;;4957875;28;20224;-75
2022/09/29 09:19:05;;;;;;;0.10;0.10;;;11.60;99.90;;;;;;4985762;28;20215;-75
2022/09/29 09:21:41;;;;;;;0.10;0.10;;;11.70;99.90;;;;;;4973766;28;20256;-75
2022/09/29 09:24:17;;;;;;;0.10;0.10;;;11.70;99.90;;;;;;4958070;28;20252;-75
2022/09/29 09:26:48;;;;;;;0.00;0.00;;;11.80;99.90;;;;;;4954474;28;20217;-75
2022/09/29 09:29:24;;;;;;;0.10;0.10;;;11.90;99.90;;;;;;4954523;29;20205;-75
2022/09/29 09:31:59;;;;;;;0.10;0.10;;;11.90;99.90;;;;;;4955286;29;20199;-75
2022/09/29 09:34:34;;;;;;;0.10;0.10;;;12.00;99.90;;;;;;4954716;29;20197;-74
2022/09/29 09:37:16;;;;;;;0.10;0.10;;;12.00;99.90;;;;;;4953679;29;20201;-74
2022/09/29 09:39:49;;;;;;;0.10;0.10;;;12.00;99.90;;;;;;4953857;29;20193;-75
2022/09/29 09:42:21;;;;;;;0.00;0.00;;;12.10;99.90;;;;;;4954693;29;20202;-75
2022/09/29 09:44:57;;;;;;;0.00;0.00;;;12.20;99.90;;;;;;4956288;28;20688;-74
2022/09/29 09:47:28;;;;;;;0.10;0.10;;;12.20;99.90;;;;;;4955383;28;20624;-75
2022/09/29 09:49:59;;;;;;;0.00;0.00;;;12.20;99.90;;;;;;4965893;28;20252;-74
2022/09/29 09:52:32;;;;;;;0.10;0.10;;;12.30;99.90;;;;;;4973267;28;20579;-74
2022/09/29 09:55:03;;;;;;;0.00;0.00;;;12.40;99.90;;;;;;4991945;28;20232;-75
2022/09/29 09:57:53;;;;;;;0.10;0.10;;;12.50;99.90;;;;;;4992665;28;20568;-75
2022/09/29 10:00:25;;;;;;;0.10;0.10;;;12.50;99.90;;;;;;4993582;28;20197;-74
2022/09/29 10:02:56;;;;;;;0.00;0.00;;;12.50;99.90;;;;;;4993702;28;20196;-74
2022/09/29 10:05:37;;;;;;;0.03;0.03;;;12.60;99.90;;;;;;4994624;28;20228;-75
2022/09/29 10:08:09;;;;;;;0.10;0.10;;;12.60;99.90;;;;;;4992716;28;20207;-75
2022/09/29 10:10:41;;;;;;;0.10;0.10;;;12.60;99.90;;;;;;4992595;28;20200;-75
2022/09/29 10:13:26;;;;;;;0.10;0.10;;;12.80;99.90;;;;;;4992896;28;20223;-75
2022/09/29 10:15:58;;;;;;;0.10;0.10;;;12.90;99.90;;;;;;4992799;28;20266;-75
2022/09/29 10:18:32;;;;;;;0.03;0.03;;;13.00;99.90;;;;;;4992675;28;20208;-75
2022/09/29 10:20:59;;;;;;;0.10;0.10;;;13.20;99.90;;;;;;4992707;28;20200;-75
2022/09/29 10:23:31;;;;;;;0.10;0.10;;;13.20;99.90;;;;;;4992930;28;20192;-75
2022/09/29 10:26:02;;;;;;;0.10;0.10;;;13.40;99.90;;;;;;4961597;28;20782;-76
2022/09/29 10:28:41;;;;;;;0.00;0.00;;;13.40;99.90;;;;;;4953936;29;20246;-75
2022/09/29 10:31:23;;;;;;;0.03;0.03;;;13.30;99.90;;;;;;4953796;29;20205;-74
2022/09/29 10:33:55;;;;;;;0.10;0.10;;;13.20;99.90;;;;;;4962128;28;20220;-74
2022/09/29 10:36:25;;;;;;;0.00;0.00;;;13.10;99.90;;;;;;4973402;28;20271;-75
2022/09/29 10:38:55;;;;;;;0.10;0.10;;;13.20;99.90;;;;;;4972935;28;20548;-75
2022/09/29 10:41:30;;;;;;;0.08;0.08;;;13.30;99.90;;;;;;4973140;28;20204;-75
2022/09/29 10:44:20;;;;;;;0.10;0.10;;;13.40;99.90;;;;;;4972620;28;20287;-75
2022/09/29 10:46:52;;;;;;;0.05;0.05;;;13.40;99.90;;;;;;4972869;28;20703;-74
2022/09/29 10:49:22;;;;;;;0.10;0.10;;;13.50;99.90;;;;;;4972757;28;20201;-74
2022/09/29 10:51:59;;;;;;;0.00;0.00;;;13.70;99.90;;;;;;4973218;28;20695;-74
2022/09/29 10:54:32;;;;;;;0.10;0.10;;;14.00;99.90;;;;;;4955451;28;20224;-74
2022/09/29 10:57:10;;;;;;;0.00;0.00;;;14.00;99.90;;;;;;4972362;28;20217;-75
2022/09/29 10:59:46;;;;;;;0.10;0.10;;;13.90;99.90;;;;;;4972693;28;20672;-74
2022/09/29 11:02:25;;;;;;;0.10;0.10;;;13.80;99.90;;;;;;4973558;28;20224;-74
2022/09/29 11:04:56;;;;;;;0.10;0.10;;;13.70;99.90;;;;;;4973428;28;20208;-74
2022/09/29 11:07:24;;;;;;;0.10;0.10;;;13.50;99.90;;;;;;4972794;28;20193;-74
2022/09/29 11:09:53;;;;;;;0.10;0.10;;;13.50;99.90;;;;;;4972430;28;20723;-74
2022/09/29 11:12:31;;;;;;;0.10;0.10;;;13.40;99.90;;;;;;4972457;28;20201;-75
2022/09/29 11:15:00;;;;;;;0.00;0.00;;;13.30;99.90;;;;;;4972648;28;20213;-74
2022/09/29 11:17:31;;;;;;;0.00;0.00;;;13.40;99.90;;;;;;4972405;28;20189;-74
2022/09/29 11:20:02;;;;;;;0.10;0.10;;;13.50;99.90;;;;;;4973076;28;20564;-74
2022/09/29 11:22:48;;;;;;;0.00;0.00;;;13.50;99.90;;;;;;4972445;28;20193;-74
2022/09/29 11:25:30;;;;;;;0.10;0.10;;;13.30;99.90;;;;;;4972645;28;20229;-74
2022/09/29 11:28:20;;;;;;;0.10;0.10;;;13.40;99.90;;;;;;4971527;28;20609;-74
2022/09/29 11:31:01;;;;;;;0.10;0.10;;;13.50;99.90;;;;;;4972112;28;20205;-74
2022/09/29 11:33:39;;;;;;;0.10;0.10;;;13.50;99.90;;;;;;4972213;28;20634;-74
2022/09/29 11:36:17;;;;;;;0.10;0.10;;;13.70;99.90;;;;;;4972101;28;20637;-75
2022/09/29 11:38:58;;;;;;;0.10;0.10;;;14.20;99.90;;;;;;4965353;28;20205;-74
2022/09/29 11:41:41;;;;;;;0.00;0.00;;;14.80;99.90;;;;;;4958158;28;20209;-74
2022/09/29 11:44:30;;;;;;;0.00;0.00;;;15.20;99.90;;;;;;4995153;28;20255;-74
2022/09/29 11:47:07;;;;;;;0.00;0.00;;;15.40;99.90;;;;;;4984499;28;20225;-74
2022/09/29 11:49:55;;;;;;;0.00;0.00;;;15.80;99.90;;;;;;4978842;28;20215;-75
2022/09/29 11:52:40;;;;;;;0.10;0.10;;;16.10;99.90;;;;;;4978243;28;20217;-74
2022/09/29 11:55:33;;;;;;;0.00;0.00;;;16.40;99.90;;;;;;4971880;28;20226;-74
2022/09/29 11:58:19;;;;;;;0.00;0.00;;;16.50;99.90;;;;;;4960706;28;20562;-75
2022/09/29 12:01:00;;;;;;;0.00;0.00;;;16.90;99.90;;;;;;4958406;29;20606;-74
2022/09/29 12:03:36;;;;;;;0.10;0.10;;;17.30;99.90;;;;;;4967448;28;20228;-74
2022/09/29 12:06:20;;;;;;;0.00;0.00;;;17.40;99.90;;;;;;4976495;28;20225;-74
2022/09/29 12:09:00;;;;;;;0.00;0.00;;;17.40;99.90;;;;;;4972069;28;20219;-74
2022/09/29 12:11:37;;;;;;;0.00;0.00;;;17.30;99.90;;;;;;4964147;28;20216;-75
2022/09/29 12:14:32;;;;;;;0.00;0.00;;;17.40;99.90;;;;;;4959018;29;20221;-74
2022/09/29 12:17:13;;;;;;;0.00;0.00;;;17.20;99.90;;;;;;4969883;28;20208;-74
2022/09/29 12:19:43;;;;;;;0.00;0.00;;;16.90;99.90;;;;;;4978636;28;20205;-74
2022/09/29 12:22:18;;;;;;;0.00;0.00;;;16.90;99.90;;;;;;4975692;28;20515;-74
2022/09/29 12:24:48;;;;;;;0.00;0.00;;;16.60;99.90;;;;;;4974545;28;20224;-74
2022/09/29 12:27:21;;;;;;;0.00;0.00;;;16.50;99.90;;;;;;4975741;28;20201;-75
2022/09/29 12:29:55;;;;;;;0.00;0.00;;;16.70;99.90;;;;;;4975743;28;20260;-74
2022/09/29 12:32:27;;;;;;;0.00;0.00;;;16.60;99.90;;;;;;4976175;28;20201;-74
2022/09/29 12:34:59;;;;;;;0.00;0.00;;;16.60;99.90;;;;;;4977839;28;20225;-74
2022/09/29 12:37:34;;;;;;;0.00;0.00;;;16.40;99.90;;;;;;4976927;28;20201;-74
2022/09/29 12:40:08;;;;;;;0.00;0.00;;;15.80;99.90;;;;;;4976895;28;20261;-74
2022/09/29 12:42:48;;;;;;;0.00;0.00;;;15.60;99.90;;;;;;4976639;28;20189;-74
2022/09/29 12:45:23;;;;;;;0.00;0.00;;;15.60;99.90;;;;;;4979399;28;20212;-74
2022/09/29 12:48:01;;;;;;;0.00;0.00;;;15.80;99.90;;;;;;4977429;28;20204;-75
2022/09/29 12:50:33;;;;;;;0.00;0.00;;;16.00;99.90;;;;;;4974604;28;20734;-74
2022/09/29 12:53:11;;;;;;;0.00;0.00;;;15.90;99.90;;;;;;4974817;28;20611;-75
2022/09/29 12:55:50;;;;;;;0.00;0.00;;;16.30;99.90;;;;;;4974642;28;20221;-74
2022/09/29 12:58:23;;;;;;;0.00;0.00;;;16.60;99.90;;;;;;4974038;28;20330;-75
2022/09/29 13:00:58;;;;;;;0.00;0.00;;;16.90;99.90;;;;;;4974758;28;20247;-75
2022/09/29 13:03:42;;;;;;;0.00;0.00;;;17.20;99.90;;;;;;4974267;28;20316;-75
2022/09/29 13:06:34;;;;;;;0.00;0.00;;;17.20;99.90;;;;;;4974974;28;20235;-74
2022/09/29 13:09:19;;;;;;;0.00;0.00;;;16.70;99.90;;;;;;4973363;28;20216;-75
2022/09/29 13:12:02;;;;;;;0.00;0.00;;;16.50;99.90;;;;;;4974708;28;20215;-74
2022/09/29 13:14:47;;;;;;;0.00;0.00;;;16.50;99.90;;;;;;4975060;28;20225;-75
2022/09/29 13:17:33;;;;;;;0.00;0.00;;;16.70;99.90;;;;;;4975238;28;20604;-74
2022/09/29 13:20:46;;;;;;;0.00;0.00;;;16.80;99.90;;;;;;4963789;28;20660;-74
2022/09/29 13:23:55;;;;;;;0.00;0.00;;;16.80;99.90;;;;;;4979983;28;20212;-74
2022/09/29 13:26:54;;;;;;;0.00;0.00;;;16.80;99.90;;;;;;4976057;28;20716;-74